Time;durP1;ratioP1;P1;durP2;ratioP2;P2;SDS_P1;SDS_P2;PMS_P1;PMS_P2;Temp;Humidity;BMP_temperature;BMP_pressure;BME280_temperature;BME280_humidity;BME280_pressure;Samples;Min_cycle;Max_cycle;Signal;HPM_P1;HPM_P2
2021/06/18 00:00:38;;;;;;;;;;;;;;;21.57;100.00;100805.75;4998057;28;19925;-71
2021/06/18 00:03:05;;;;;;;;;;;;;;;21.70;100.00;100805.06;4997289;28;19976;-71
2021/06/18 00:05:33;;;;;;;;;;;;;;;21.79;100.00;100797.47;4998064;28;19926;-70
2021/06/18 00:07:59;;;;;;;;;;;;;;;21.77;100.00;100793.19;4998031;28;20351;-70
2021/06/18 00:10:26;;;;;;;;;;;;;;;21.72;100.00;100796.56;4998112;28;20301;-70
2021/06/18 00:12:53;;;;;;;;;;;;;;;21.70;100.00;100798.66;4997594;28;19926;-71
2021/06/18 00:15:19;;;;;;;;;;;;;;;21.69;100.00;100796.97;4997588;28;19926;-70
2021/06/18 00:17:46;;;;;;;;;;;;;;;21.67;100.00;100791.66;4997833;28;19926;-71
2021/06/18 00:20:13;;;;;;;;;;;;;;;21.66;100.00;100798.22;4997816;28;19933;-70
2021/06/18 00:22:41;;;;;;;;;;;;;;;21.76;100.00;100791.50;4998005;28;19925;-70
2021/06/18 00:25:08;;;;;;;;;;;;;;;21.90;100.00;100787.84;4996386;28;20457;-70
2021/06/18 00:27:34;;;;;;;;;;;;;;;21.95;100.00;100787.22;4998057;28;19926;-70
2021/06/18 00:30:01;;;;;;;;;;;;;;;21.87;100.00;100791.84;4996262;28;19947;-70
2021/06/18 00:32:27;;;;;;;;;;;;;;;21.77;100.00;100784.91;4997845;28;19980;-71
2021/06/18 00:34:53;;;;;;;;;;;;;;;21.63;100.00;100786.69;4997886;28;19992;-70
2021/06/18 00:37:20;;;;;;;;;;;;;;;21.63;100.00;100782.00;4997477;28;19933;-69
2021/06/18 00:39:48;;;;;;;;;;;;;;;21.52;100.00;100783.34;4997827;28;19937;-70
2021/06/18 00:42:14;;;;;;;;;;;;;;;21.49;100.00;100783.75;4997573;28;19988;-70
2021/06/18 00:44:41;;;;;;;;;;;;;;;21.43;100.00;100778.16;4995787;28;19926;-70
2021/06/18 00:47:13;;;;;;;;;;;;;;;21.41;100.00;100775.59;4994357;28;19995;-70
2021/06/18 00:49:40;;;;;;;;;;;;;;;21.35;100.00;100780.00;4994745;28;19934;-70
2021/06/18 00:52:06;;;;;;;;;;;;;;;21.26;100.00;100778.41;4993940;28;19953;-71
2021/06/18 00:54:33;;;;;;;;;;;;;;;21.18;100.00;100771.09;4994424;28;19988;-70
2021/06/18 00:57:01;;;;;;;;;;;;;;;21.16;100.00;100775.09;4994686;28;20330;-70
2021/06/18 00:59:28;;;;;;;;;;;;;;;21.19;100.00;100770.03;4994255;28;19926;-70
2021/06/18 01:01:54;;;;;;;;;;;;;;;21.11;100.00;100761.88;4994531;28;20382;-70
2021/06/18 01:04:23;;;;;;;;;;;;;;;21.08;100.00;100762.25;4994196;28;19981;-70
2021/06/18 01:06:53;;;;;;;;;;;;;;;21.00;100.00;100763.22;4994097;28;20385;-70
2021/06/18 01:09:20;;;;;;;;;;;;;;;20.97;100.00;100760.84;5009500;28;19945;-71
2021/06/18 01:11:50;;;;;;;;;;;;;;;21.03;100.00;100761.97;4994225;28;19930;-71
2021/06/18 01:14:21;;;;;;;;;;;;;;;21.06;100.00;100764.38;4994438;28;19926;-70
2021/06/18 01:16:52;;;;;;;;;;;;;;;21.06;100.00;100764.38;4994129;28;19925;-70
2021/06/18 01:19:23;;;;;;;;;;;;;;;21.00;100.00;100762.38;4994148;28;19930;-70
2021/06/18 01:21:53;;;;;;;;;;;;;;;20.89;100.00;100766.47;4994137;28;19926;-70
2021/06/18 01:24:30;;;;;;;;;;;;;;;20.76;100.00;100763.53;4993616;28;19933;-70
2021/06/18 01:27:05;;;;;;;;;;;;;;;20.64;100.00;100765.88;4994110;28;19930;-70
2021/06/18 01:29:35;;;;;;;;;;;;;;;20.53;100.00;100764.44;4994090;28;19988;-70
2021/06/18 01:32:02;;;;;;;;;;;;;;;20.47;100.00;100766.06;4993674;28;19933;-70
2021/06/18 01:34:31;;;;;;;;;;;;;;;20.43;100.00;100769.38;4992280;28;20049;-70
2021/06/18 01:37:00;;;;;;;;;;;;;;;20.45;100.00;100768.16;4993662;28;19926;-70
2021/06/18 01:39:26;;;;;;;;;;;;;;;20.38;100.00;100772.72;4994094;28;19929;-70
2021/06/18 01:41:53;;;;;;;;;;;;;;;20.24;100.00;100777.13;4993452;28;19926;-70
2021/06/18 01:44:21;;;;;;;;;;;;;;;20.11;100.00;100775.03;4993828;28;20388;-70
2021/06/18 01:46:49;;;;;;;;;;;;;;;20.03;100.00;100775.97;4993519;28;19965;-70
2021/06/18 01:49:17;;;;;;;;;;;;;;;20.00;100.00;100769.97;4993658;28;19930;-70
2021/06/18 01:51:45;;;;;;;;;;;;;;;19.86;100.00;100769.72;4993453;28;19930;-69
2021/06/18 01:54:12;;;;;;;;;;;;;;;19.77;100.00;100772.72;4993058;28;19925;-70
2021/06/18 01:56:41;;;;;;;;;;;;;;;19.67;100.00;100767.44;4993272;28;19930;-70
2021/06/18 01:59:07;;;;;;;;;;;;;;;19.59;100.00;100762.88;4993265;28;19925;-69
2021/06/18 02:01:36;;;;;;;;;;;;;;;19.54;100.00;100766.16;4993004;28;20405;-69
2021/06/18 02:04:05;;;;;;;;;;;;;;;19.53;100.00;100761.69;4993213;28;19926;-70
2021/06/18 02:06:32;;;;;;;;;;;;;;;19.55;100.00;100756.84;4993142;28;19969;-69
2021/06/18 02:08:59;;;;;;;;;;;;;;;19.50;100.00;100759.31;4993363;28;19972;-69
2021/06/18 02:11:27;;;;;;;;;;;;;;;19.51;100.00;100760.19;4993177;28;20516;-69
2021/06/18 02:13:54;;;;;;;;;;;;;;;19.49;100.00;100760.34;4992974;28;20330;-70
2021/06/18 02:16:22;;;;;;;;;;;;;;;19.46;100.00;100768.13;4991434;28;19926;-69
2021/06/18 02:18:49;;;;;;;;;;;;;;;19.42;100.00;100767.63;5004815;28;19973;-69
2021/06/18 02:21:18;;;;;;;;;;;;;;;19.46;100.00;100760.72;4973139;28;19965;-69
2021/06/18 02:23:45;;;;;;;;;;;;;;;19.55;100.00;100761.53;4973290;28;20405;-69
2021/06/18 02:26:12;;;;;;;;;;;;;;;19.63;100.00;100753.19;4973359;28;19973;-69
2021/06/18 02:28:38;;;;;;;;;;;;;;;19.62;100.00;100770.75;4973361;28;20402;-69
2021/06/18 02:31:05;;;;;;;;;;;;;;;19.65;100.00;100764.03;4973324;28;19933;-70
2021/06/18 02:33:32;;;;;;;;;;;;;;;19.56;100.00;100769.59;4973154;28;19962;-69
2021/06/18 02:35:58;;;;;;;;;;;;;;;19.49;100.00;100763.09;4973167;28;19929;-69
2021/06/18 02:38:25;;;;;;;;;;;;;;;19.49;100.00;100763.09;4987975;28;19961;-69
2021/06/18 02:40:52;;;;;;;;;;;;;;;19.43;100.00;100763.84;5004402;28;20424;-69
2021/06/18 02:43:18;;;;;;;;;;;;;;;19.40;100.00;100764.19;4973263;28;19973;-69
2021/06/18 02:45:44;;;;;;;;;;;;;;;19.28;100.00;100777.53;4972957;28;20004;-69
2021/06/18 02:48:13;;;;;;;;;;;;;;;19.09;100.00;100773.31;4973201;28;20402;-69
2021/06/18 02:50:40;;;;;;;;;;;;;;;19.02;100.00;100769.56;4973135;28;19927;-69
2021/06/18 02:53:14;;;;;;;;;;;;;;;18.89;100.00;100781.13;4972602;28;20326;-69
2021/06/18 02:55:44;;;;;;;;;;;;;;;18.79;100.00;100789.56;4972874;28;19962;-69
2021/06/18 02:58:13;;;;;;;;;;;;;;;18.67;100.00;100785.50;4972824;28;19972;-70
2021/06/18 03:00:41;;;;;;;;;;;;;;;18.62;100.00;100787.91;4972967;28;19926;-69
2021/06/18 03:03:08;;;;;;;;;;;;;;;18.54;100.00;100783.28;4972592;28;20029;-69
2021/06/18 03:05:34;;;;;;;;;;;;;;;18.51;100.00;100775.41;4972835;28;19958;-70
2021/06/18 03:08:02;;;;;;;;;;;;;;;18.53;100.00;100778.81;4972428;28;20377;-70
2021/06/18 03:10:29;;;;;;;;;;;;;;;18.51;100.00;100781.72;4972690;28;19958;-70
2021/06/18 03:13:00;;;;;;;;;;;;;;;18.46;100.00;100789.66;5003856;28;20437;-70
2021/06/18 03:15:28;;;;;;;;;;;;;;;18.42;100.00;100790.19;4972422;28;19930;-70
2021/06/18 03:17:55;;;;;;;;;;;;;;;18.37;100.00;100790.69;4972705;28;20393;-69
2021/06/18 03:20:22;;;;;;;;;;;;;;;18.32;100.00;100793.97;4972605;28;20373;-70
2021/06/18 03:22:50;;;;;;;;;;;;;;;18.29;100.00;100793.44;4972502;28;19961;-70
2021/06/18 03:25:16;;;;;;;;;;;;;;;18.26;100.00;100789.16;4972398;28;19930;-70
2021/06/18 03:27:44;;;;;;;;;;;;;;;18.24;100.00;100803.06;4972451;28;19930;-69
2021/06/18 03:30:13;;;;;;;;;;;;;;;18.27;100.00;100801.03;4972485;28;19930;-70
2021/06/18 03:32:40;;;;;;;;;;;;;;;18.29;100.00;100798.94;4972413;28;19958;-69
2021/06/18 03:35:08;;;;;;;;;;;;;;;18.31;100.00;100807.88;4987384;28;19981;-69
2021/06/18 03:37:35;;;;;;;;;;;;;;;18.31;100.00;100810.63;4972649;28;20357;-69
2021/06/18 03:40:02;;;;;;;;;;;;;;;18.39;100.00;100805.13;4972480;28;20020;-69
2021/06/18 03:42:29;;;;;;;;;;;;;;;18.41;100.00;100814.03;4972377;28;19981;-69
2021/06/18 03:44:55;;;;;;;;;;;;;;;18.46;100.00;100816.28;4972398;28;19972;-69
2021/06/18 03:47:24;;;;;;;;;;;;;;;18.52;100.00;100819.19;4972664;28;20020;-69
2021/06/18 03:49:51;;;;;;;;;;;;;;;18.65;100.00;100812.28;4972414;28;19985;-69
2021/06/18 03:52:18;;;;;;;;;;;;;;;18.70;100.00;100807.97;4971944;28;19930;-69
2021/06/18 03:54:44;;;;;;;;;;;;;;;18.74;100.00;100803.81;4972367;28;19969;-69
2021/06/18 03:57:13;;;;;;;;;;;;;;;18.85;100.00;100808.13;4972002;28;19974;-69
2021/06/18 03:59:41;;;;;;;;;;;;;;;19.06;100.00;100802.03;4983909;28;19976;-68
2021/06/18 04:02:07;;;;;;;;;;;;;;;19.31;100.00;100809.28;5024287;28;20012;-69
2021/06/18 04:04:36;;;;;;;;;;;;;;;19.76;100.00;100810.38;5003765;28;20026;-68
2021/06/18 04:07:02;;;;;;;;;;;;;;;20.07;100.00;100793.00;4991910;28;20016;-69
2021/06/18 04:09:30;;;;;;;;;;;;;;;20.33;100.00;100799.97;4992029;28;20407;-69
2021/06/18 04:11:56;;;;;;;;;;;;;;;20.57;100.00;100796.94;4991392;28;20016;-69
2021/06/18 04:14:23;;;;;;;;;;;;;;;20.76;100.00;100791.97;4995484;28;20361;-69
2021/06/18 04:16:49;;;;;;;;;;;;;;;20.92;100.00;100792.81;5007979;28;19925;-70
2021/06/18 04:19:15;;;;;;;;;;;;;;;21.03;100.00;100790.44;4991417;28;20033;-70
2021/06/18 04:21:44;;;;;;;;;;;;;;;21.14;100.00;100791.84;4994878;28;19995;-68
2021/06/18 04:24:12;;;;;;;;;;;;;;;21.28;100.00;100792.00;4996664;28;20276;-69
2021/06/18 04:26:39;;;;;;;;;;;;;;;21.37;100.00;100799.97;5014331;28;19925;-69
2021/06/18 04:29:05;;;;;;;;;;;;;;;21.47;100.00;100796.03;5013338;28;19925;-69
2021/06/18 04:31:32;;;;;;;;;;;;;;;21.55;100.00;100802.34;5004866;28;20028;-69
2021/06/18 04:33:58;;;;;;;;;;;;;;;21.64;100.00;100799.47;5006045;28;20082;-69
2021/06/18 04:36:24;;;;;;;;;;;;;;;21.72;100.00;100799.31;5013199;28;19976;-68
2021/06/18 04:38:52;;;;;;;;;;;;;;;21.80;100.00;100796.44;5011673;28;20387;-69
2021/06/18 04:41:18;;;;;;;;;;;;;;;21.90;100.00;100801.66;5012979;28;19975;-68
2021/06/18 04:43:45;;;;;;;;;;;;;;;21.98;100.00;100795.97;5004141;28;19929;-69
2021/06/18 04:46:11;;;;;;;;;;;;;;;22.07;100.00;100799.44;4994387;28;19972;-68
2021/06/18 04:48:37;;;;;;;;;;;;;;;22.16;100.00;100794.66;5008378;28;19933;-68
2021/06/18 04:51:05;;;;;;;;;;;;;;;22.25;100.00;100798.97;5014014;28;19932;-68
2021/06/18 04:53:31;;;;;;;;;;;;;;;22.32;100.00;100802.63;5004616;28;19930;-69
2021/06/18 04:56:00;;;;;;;;;;;;;;;22.40;100.00;100799.75;4992903;28;19926;-69
2021/06/18 04:58:27;;;;;;;;;;;;;;;22.49;100.00;100803.22;4990686;28;22205;-69
2021/06/18 05:00:54;;;;;;;;;;;;;;;22.61;100.00;100799.88;4993781;28;19925;-69
2021/06/18 05:03:20;;;;;;;;;;;;;;;22.71;100.00;100806.75;5021954;28;20021;-69
2021/06/18 05:05:46;;;;;;;;;;;;;;;22.82;100.00;100783.22;5008276;28;19996;-68
2021/06/18 05:08:13;;;;;;;;;;;;;;;22.93;100.00;100798.41;4995326;28;19995;-70
2021/06/18 05:10:39;;;;;;;;;;;;;;;23.04;100.00;100805.28;5000599;28;20397;-69
2021/06/18 05:13:06;;;;;;;;;;;;;;;23.09;100.00;100797.22;5025538;28;20308;-69
2021/06/18 05:15:33;;;;;;;;;;;;;;;23.20;100.00;100796.63;5012085;28;19972;-69
2021/06/18 05:18:00;;;;;;;;;;;;;;;23.31;100.00;100800.72;5011402;28;20024;-69
2021/06/18 05:20:26;;;;;;;;;;;;;;;23.39;100.00;100800.53;5013814;28;19976;-70
2021/06/18 05:22:52;;;;;;;;;;;;;;;23.49;100.00;100802.06;5010714;28;19984;-70
2021/06/18 05:25:19;;;;;;;;;;;;;;;23.68;100.00;100801.25;4993971;28;20016;-69
2021/06/18 05:27:45;;;;;;;;;;;;;;;23.81;100.00;100811.53;4998285;28;19972;-69
2021/06/18 05:30:14;;;;;;;;;;;;;;;23.99;100.00;100812.88;5010827;28;19929;-69
2021/06/18 05:32:40;;;;;;;;;;;;;;;24.13;100.00;100805.41;4995344;28;19953;-71
2021/06/18 05:35:07;;;;;;;;;;;;;;;24.28;100.00;100822.69;4993366;28;19930;-69
2021/06/18 05:37:34;;;;;;;;;;;;;;;24.46;100.00;100815.66;4999403;28;20049;-70
2021/06/18 05:40:00;;;;;;;;;;;;;;;24.59;100.00;100815.63;4993951;28;19972;-70
2021/06/18 05:42:26;;;;;;;;;;;;;;;24.69;100.00;100823.53;5004602;28;19929;-70
2021/06/18 05:44:53;;;;;;;;;;;;;;;24.81;100.00;100827.34;5012883;28;19925;-70
2021/06/18 05:47:20;;;;;;;;;;;;;;;24.98;100.00;100824.97;5012939;28;19937;-69
2021/06/18 05:49:47;;;;;;;;;;;;;;;25.10;100.00;100824.31;5013060;28;20012;-70
2021/06/18 05:52:13;;;;;;;;;;;;;;;25.21;100.00;100818.06;5011713;28;19929;-70
2021/06/18 05:54:39;;;;;;;;;;;;;;;25.39;100.00;100834.06;5012666;28;19984;-70
2021/06/18 05:57:06;;;;;;;;;;;;;;;25.59;100.00;100833.09;5012558;28;20405;-71
2021/06/18 05:59:32;;;;;;;;;;;;;;;25.69;99.14;100839.03;5011406;28;20032;-71
2021/06/18 06:01:58;;;;;;;;;;;;;;;25.83;96.57;100829.53;5012039;28;19979;-71
2021/06/18 06:04:26;;;;;;;;;;;;;;;26.21;94.11;100828.63;5010999;28;20035;-70
2021/06/18 06:06:52;;;;;;;;;;;;;;;26.57;94.67;100823.41;5011208;28;19929;-71
2021/06/18 06:09:18;;;;;;;;;;;;;;;26.78;89.31;100824.09;5010151;28;20401;-71
2021/06/18 06:11:45;;;;;;;;;;;;;;;27.17;86.70;100828.38;5011509;28;19965;-71
2021/06/18 06:14:16;;;;;;;;;;;;;;;27.46;82.50;100823.13;5010741;28;20024;-70
2021/06/18 06:16:43;;;;;;;;;;;;;;;27.52;82.63;100824.94;5010729;28;20427;-71
2021/06/18 06:19:09;;;;;;;;;;;;;;;27.60;81.86;100826.56;5011702;28;19925;-69
2021/06/18 06:21:36;;;;;;;;;;;;;;;27.65;81.40;100823.09;5011939;28;19964;-70
2021/06/18 06:24:03;;;;;;;;;;;;;;;28.15;75.87;100819.13;5001098;28;20372;-70
2021/06/18 06:26:29;;;;;;;;;;;;;;;28.54;75.72;100825.97;4992741;28;20020;-70
2021/06/18 06:28:55;;;;;;;;;;;;;;;28.73;74.93;100825.91;4992957;28;20001;-70
2021/06/18 06:31:22;;;;;;;;;;;;;;;29.09;72.48;100814.66;4991895;28;19972;-70
2021/06/18 06:33:48;;;;;;;;;;;;;;;29.50;69.89;100816.38;4992591;28;20033;-70
2021/06/18 06:36:14;;;;;;;;;;;;;;;29.70;66.22;100815.97;4992064;28;19949;-70
2021/06/18 06:38:42;;;;;;;;;;;;;;;29.92;63.62;100817.19;4992611;28;19961;-70
2021/06/18 06:41:08;;;;;;;;;;;;;;;29.94;61.48;100820.59;4992593;28;19955;-70
2021/06/18 06:43:34;;;;;;;;;;;;;;;29.68;59.73;100817.31;5006613;28;19925;-70
2021/06/18 06:46:01;;;;;;;;;;;;;;;29.85;60.06;100823.78;4992488;28;19934;-70
2021/06/18 06:48:27;;;;;;;;;;;;;;;30.18;59.94;100824.09;4992054;28;20029;-70
2021/06/18 06:50:53;;;;;;;;;;;;;;;30.05;57.51;100828.94;4992550;28;19965;-70
2021/06/18 06:53:20;;;;;;;;;;;;;;;30.49;58.49;100828.31;4992173;28;19976;-70
2021/06/18 06:55:47;;;;;;;;;;;;;;;30.61;57.04;100827.34;4992130;28;19964;-69
2021/06/18 06:58:14;;;;;;;;;;;;;;;30.91;58.33;100831.69;5007352;28;20342;-69
2021/06/18 07:00:40;;;;;;;;;;;;;;;30.62;56.19;100826.25;4992090;28;20464;-68
2021/06/18 07:03:06;;;;;;;;;;;;;;;30.96;54.94;100824.25;4992018;28;19957;-71
2021/06/18 07:05:33;;;;;;;;;;;;;;;31.20;53.73;100826.81;4992004;28;19934;-70
2021/06/18 07:07:59;;;;;;;;;;;;;;;30.78;50.54;100824.53;5007090;28;19969;-70
2021/06/18 07:10:25;;;;;;;;;;;;;;;30.72;51.92;100830.06;4992402;28;19934;-71
2021/06/18 07:12:53;;;;;;;;;;;;;;;30.70;50.96;100823.84;4991763;28;19934;-70
2021/06/18 07:15:19;;;;;;;;;;;;;;;31.04;50.77;100812.59;4991821;28;19929;-70
2021/06/18 07:17:46;;;;;;;;;;;;;;;31.28;48.67;100817.97;4991908;28;20252;-71
2021/06/18 07:20:12;;;;;;;;;;;;;;;31.29;49.43;100816.00;4991900;28;20045;-70
2021/06/18 07:22:39;;;;;;;;;;;;;;;31.48;47.95;100820.16;4991807;28;19950;-70
2021/06/18 07:25:06;;;;;;;;;;;;;;;31.67;48.22;100808.63;4991972;28;19987;-69
2021/06/18 07:27:33;;;;;;;;;;;;;;;31.61;48.10;100804.06;4990805;28;19936;-69
2021/06/18 07:30:00;;;;;;;;;;;;;;;31.91;46.68;100802.66;4991654;28;19984;-71
2021/06/18 07:32:27;;;;;;;;;;;;;;;31.79;45.92;100803.69;4991807;28;20016;-70
2021/06/18 07:34:53;;;;;;;;;;;;;;;31.92;44.76;100796.78;4991709;28;19963;-70
2021/06/18 07:37:19;;;;;;;;;;;;;;;32.08;45.52;100803.38;4991897;28;19965;-71
2021/06/18 07:39:45;;;;;;;;;;;;;;;32.11;45.37;100805.69;4990293;28;20391;-70
2021/06/18 07:42:12;;;;;;;;;;;;;;;32.83;45.01;100808.22;4991634;28;19981;-70
2021/06/18 07:44:39;;;;;;;;;;;;;;;33.07;43.10;100810.59;4998040;28;20355;-70
2021/06/18 07:47:07;;;;;;;;;;;;;;;32.83;39.33;100803.44;5010948;28;20401;-70
2021/06/18 07:49:33;;;;;;;;;;;;;;;33.00;40.71;100796.78;5009688;28;19930;-71
2021/06/18 07:51:59;;;;;;;;;;;;;;;32.94;40.21;100803.50;5000445;28;19929;-70
2021/06/18 07:54:26;;;;;;;;;;;;;;;33.06;38.75;100795.69;5001578;28;19929;-70
2021/06/18 07:56:53;;;;;;;;;;;;;;;32.18;38.31;100797.91;4995163;28;19937;-70
2021/06/18 07:59:19;;;;;;;;;;;;;;;32.28;37.91;100785.91;5006666;28;20372;-70
2021/06/18 08:01:46;;;;;;;;;;;;;;;32.53;37.97;100792.84;4995556;28;19926;-70
2021/06/18 08:04:14;;;;;;;;;;;;;;;33.03;37.23;100796.22;4995137;28;19933;-71
2021/06/18 08:06:41;;;;;;;;;;;;;;;32.91;35.97;100788.00;4995253;28;19926;-70
2021/06/18 08:09:07;;;;;;;;;;;;;;;33.04;36.36;100786.69;4997027;28;20057;-68
2021/06/18 08:11:34;;;;;;;;;;;;;;;33.21;35.80;100792.94;4993555;28;20380;-69
2021/06/18 08:14:00;;;;;;;;;;;;;;;32.67;35.07;100794.06;4993999;28;20028;-70
2021/06/18 08:16:26;;;;;;;;;;;;;;;33.38;35.69;100780.66;4994013;28;20033;-70
2021/06/18 08:18:53;;;;;;;;;;;;;;;33.92;35.80;100784.19;4993814;28;19992;-70
2021/06/18 08:21:20;;;;;;;;;;;;;;;33.86;33.50;100786.97;4996106;28;20445;-68
2021/06/18 08:23:47;;;;;;;;;;;;;;;33.32;34.26;100784.56;5012031;28;19932;-69
2021/06/18 08:26:13;;;;;;;;;;;;;;;33.23;35.18;100787.03;4994908;28;20154;-69
2021/06/18 08:28:39;;;;;;;;;;;;;;;33.66;33.69;100786.91;5014387;28;19932;-69
2021/06/18 08:31:06;;;;;;;;;;;;;;;33.53;33.48;100783.50;5003194;28;19926;-68
2021/06/18 08:33:35;;;;;;;;;;;;;;;33.79;33.10;100780.75;4994574;28;19930;-69
2021/06/18 08:36:01;;;;;;;;;;;;;;;34.28;32.69;100778.53;5003301;28;19925;-69
2021/06/18 08:38:29;;;;;;;;;;;;;;;34.90;32.45;100779.28;5012839;28;19926;-69
2021/06/18 08:40:55;;;;;;;;;;;;;;;35.04;30.55;100771.09;5012470;28;20498;-69
2021/06/18 08:43:22;;;;;;;;;;;;;;;35.26;30.45;100779.16;5003449;28;19965;-70
2021/06/18 08:45:48;;;;;;;;;;;;;;;35.49;30.21;100780.47;5001628;28;19980;-69
2021/06/18 08:48:14;;;;;;;;;;;;;;;35.58;30.59;100775.03;4994219;28;19926;-70
2021/06/18 08:50:43;;;;;;;;;;;;;;;34.44;30.46;100766.16;4996414;28;19961;-69
2021/06/18 08:53:11;;;;;;;;;;;;;;;32.73;32.93;100768.84;5010260;28;19980;-68
2021/06/18 08:55:38;;;;;;;;;;;;;;;33.47;31.96;100756.50;5011877;28;20312;-69
2021/06/18 08:58:05;;;;;;;1999.90;999.90;;;;;;;33.69;32.49;100766.66;4995257;28;20426;-68
2021/06/18 09:00:32;;;;;;;1999.90;999.90;;;;;;;33.70;31.67;100768.34;4991348;28;20914;-69
2021/06/18 09:02:59;;;;;;;1999.90;999.90;;;;;;;33.77;30.95;100760.47;4990802;28;20438;-66
2021/06/18 09:05:26;;;;;;;;;;;;;;;33.54;30.65;100751.44;4992150;28;20418;-67
2021/06/18 09:07:53;;;;;;;;;;;;;;;34.27;30.54;100757.97;4993452;28;19926;-67
2021/06/18 09:10:23;;;;;;;;;;;;;;;34.86;29.34;100758.44;4994351;28;19968;-67
2021/06/18 09:13:04;;;;;;;;;;;;;;;35.17;28.89;100758.31;4993786;28;19984;-67
2021/06/18 09:15:32;;;;;;;1999.90;999.90;;;;;;;34.69;29.78;100756.78;4993964;28;20285;-68
2021/06/18 09:18:23;;;;;;;1999.90;999.90;;;;;;;34.85;28.79;100751.16;4992091;28;20517;-68
2021/06/18 09:20:49;;;;;;;1999.90;999.90;;;;;;;35.03;28.79;100744.84;4992275;28;20459;-68
2021/06/18 09:23:20;;;;;;;;;;;;;;;35.17;27.35;100745.09;4993068;28;20488;-68
2021/06/18 09:25:46;;;;;;;;;;;;;;;34.50;28.55;100738.81;4993819;28;19921;-68
2021/06/18 09:28:13;;;;;;;;;;;;;;;34.48;28.03;100732.63;4993773;28;19953;-67
2021/06/18 09:30:40;;;;;;;;;;;;;;;34.50;27.80;100736.84;4993722;28;20021;-68
2021/06/18 09:33:10;;;;;;;;;;;;;;;34.83;27.53;100753.41;4993735;28;19922;-66
2021/06/18 09:35:36;;;;;;;;;;;;;;;34.23;28.46;100739.94;4993383;28;19922;-68
2021/06/18 09:38:04;;;;;;;;;;;;;;;34.38;28.55;100736.28;4993802;28;20440;-67
2021/06/18 09:40:31;;;;;;;;;;;;;;;35.26;27.52;100741.66;4993807;28;19929;-68
2021/06/18 09:42:58;;;;;;;;;;;;;;;34.85;27.27;100734.25;4993196;28;19921;-67
2021/06/18 09:45:25;;;;;;;;;;;;;;;35.85;27.04;100735.09;4993682;28;19925;-68
2021/06/18 09:47:53;;;;;;;;;;;;;;;36.13;27.05;100728.91;4993226;28;19921;-68
2021/06/18 09:50:28;;;;;;;;;;;;;;;36.06;26.67;100737.72;4993739;28;19921;-68
2021/06/18 09:53:10;;;;;;;;;;;;;;;36.33;26.53;100730.72;4993493;28;19922;-69
2021/06/18 09:55:37;;;;;;;;;;;;;;;36.37;25.57;100723.34;4993054;28;20425;-69
2021/06/18 09:58:03;;;;;;;;;;;;;;;35.81;26.64;100728.31;4993441;28;20473;-68
2021/06/18 10:00:30;;;;;;;;;;;;;;;36.02;25.50;100728.16;4993121;28;19926;-68
2021/06/18 10:02:57;;;;;;;;;;;;;;;35.57;25.93;100728.22;5008372;28;19968;-68
2021/06/18 10:05:25;;;;;;;;;;;;;;;35.81;26.22;100728.31;4993010;28;19922;-68
2021/06/18 10:07:52;;;;;;;;;;;;;;;35.73;26.02;100731.75;5011445;28;20341;-68
2021/06/18 10:10:19;;;;;;;;;;;;;;;35.03;26.36;100724.28;4999117;28;20374;-68
2021/06/18 10:12:46;;;;;;;;;;;;;;;35.56;26.10;100720.03;5001146;28;19968;-69
2021/06/18 10:15:13;;;;;;;;;;;;;;;34.88;27.04;100699.81;5005097;28;19925;-67
2021/06/18 10:17:41;;;;;;;;;;;;;;;34.77;26.30;100715.91;4993265;28;19964;-67
2021/06/18 10:20:09;;;;;;;;;;;;;;;35.03;26.91;100716.66;4992666;28;20420;-68
2021/06/18 10:22:38;;;;;;;;;;;;;;;35.26;25.94;100708.63;4999288;28;19922;-68
2021/06/18 10:25:07;;;;;;;;;;;;;;;35.73;25.92;100714.81;4992440;28;19976;-67
2021/06/18 10:27:39;;;;;;;;;;;;;;;36.43;24.92;100710.84;5004378;28;19921;-67
2021/06/18 10:30:28;;;;;;;;;;;;;;;35.80;25.89;100706.88;5003435;28;19980;-67
2021/06/18 10:32:55;;;;;;;;;;;;;;;36.44;24.96;100701.22;4992849;28;19932;-67
2021/06/18 10:35:52;;;;;;;;;;;;;;;36.42;25.36;100714.81;5002107;28;19929;-67
2021/06/18 10:38:27;;;;;;;;;;;;;;;35.80;24.95;100706.88;4981108;28;20016;-67
2021/06/18 10:40:54;;;;;;;;;;;;;;;35.30;25.61;100709.72;5011882;28;19967;-67
2021/06/18 10:43:20;;;;;;;;;;;;;;;35.66;25.86;100703.88;4999169;28;20025;-67
2021/06/18 10:46:05;;;;;;;;;;;;;;;36.06;25.20;100703.00;4992504;28;19971;-67
2021/06/18 10:48:46;;;;;;;;;;;;;;;35.58;24.94;100706.50;5005262;28;19968;-66
2021/06/18 10:51:27;;;;;;;;;;;;;;;35.84;24.07;100698.69;5011181;28;19921;-67
2021/06/18 10:53:59;;;;;;;;;;;;;;;35.38;24.25;100690.56;5000763;28;20027;-66
2021/06/18 10:56:40;;;;;;;;;;;;;;;35.92;23.46;100691.53;4998728;28;19949;-65
2021/06/18 10:59:07;;;;;;;;;;;;;;;35.83;23.44;100674.38;4993877;28;19965;-66
2021/06/18 11:01:34;;;;;;;;;;;;;;;36.46;25.17;100692.44;5011520;28;20304;-67
2021/06/18 11:04:00;;;;;;;;;;;;;;;35.95;23.61;100688.16;5002666;28;19929;-67
2021/06/18 11:06:43;;;;;;;;;;;;;;;35.93;23.13;100679.13;4990657;28;19922;-66
2021/06/18 11:09:11;;;;;;;;;;;;;;;35.11;24.03;100677.72;5001733;28;19921;-65
2021/06/18 11:11:37;;;;;;;;;;;;;;;35.12;24.40;100677.41;5001664;28;19921;-64
2021/06/18 11:14:04;;;;;;;;;;;;;;;35.82;23.61;100676.34;5011392;28;19965;-65
2021/06/18 11:16:35;;;;;;;;;;;;;;;36.36;23.52;100676.47;5001386;28;19922;-66
2021/06/18 11:19:16;;;;;;;;;;;;;;;36.89;23.30;100671.88;5005351;28;19928;-67
2021/06/18 11:21:42;;;;;;;;;;;;;;;36.87;23.43;100663.72;4992226;28;19985;-65
2021/06/18 11:24:08;;;;;;;;;;;;;;;35.68;24.06;100666.91;4996558;28;19926;-65
2021/06/18 11:26:36;;;;;;;;;;;;;;;35.96;23.85;100672.88;5009703;28;19952;-66
2021/06/18 11:29:03;;;;;;;;;;;;;;;36.56;23.94;100674.53;4991369;28;20027;-67
2021/06/18 11:31:39;;;;;;;;;;;;;;;36.34;22.82;100676.75;4992860;28;20012;-67
2021/06/18 11:34:06;;;;;;;;;;;;;;;37.39;22.31;100672.31;4995501;28;19937;-67
2021/06/18 11:36:41;;;;;;;;;;;;;;;37.12;22.52;100671.00;4994993;28;20449;-67
2021/06/18 11:39:12;;;;;;;;;;;;;;;36.23;23.74;100669.50;4994150;28;19940;-66
2021/06/18 11:41:42;;;;;;;;;;;;;;;37.03;23.68;100668.00;4992901;28;19922;-67
2021/06/18 11:44:10;;;;;;;;;;;;;;;35.95;23.69;100662.75;5004614;28;20384;-65
2021/06/18 11:46:37;;;;;;;;;;;;;;;35.51;23.93;100656.03;5010228;28;19987;-65
2021/06/18 11:49:08;;;;;;;;;;;;;;;36.25;23.54;100653.09;5010562;28;19928;-66
2021/06/18 11:51:35;;;;;;;;;;;;;;;35.76;23.81;100645.66;5007616;28;19930;-65
2021/06/18 11:54:01;;;;;;;;;;;;;;;35.86;23.85;100645.59;4996996;28;19921;-66
2021/06/18 11:56:28;;;;;;;;;;;;;;;35.94;24.10;100644.94;5009367;28;20012;-67
2021/06/18 11:58:56;;;;;;;;;;;;;;;36.04;23.92;100638.38;4992052;28;19953;-66
2021/06/18 12:01:24;;;;;;;;;;;;;;;37.02;23.13;100634.38;5011070;28;20367;-67
2021/06/18 12:03:52;;;;;;;;;;;;;;;36.69;23.10;100634.22;5009522;28;20343;-65
2021/06/18 12:06:19;;;;;;;;;;;;;;;37.10;24.00;100628.00;5008953;28;19921;-67
2021/06/18 12:08:58;;;;;;;;;;;;;;;37.62;23.66;100644.19;4998144;28;19930;-67
2021/06/18 12:11:25;;;;;;;;;;;;;;;38.05;22.94;100640.34;4992408;28;20397;-66
2021/06/18 12:13:52;;;;;;;;;;;;;;;38.21;22.86;100646.56;5003681;28;19925;-66
2021/06/18 12:16:19;;;;;;;;;;;;;;;37.49;20.44;100624.00;5010853;28;19921;-65
2021/06/18 12:18:46;;;;;;;;;;;;;;;37.05;21.18;100645.06;5002728;28;20403;-65
2021/06/18 12:21:12;;;;;;;;;;;;;;;37.88;21.24;100641.78;4996112;28;19922;-66
2021/06/18 12:23:39;;;;;;;;;;;;;;;37.94;21.43;100634.03;4993841;28;19928;-66
2021/06/18 12:26:06;;;;;;;;;;;;;;;38.19;19.77;100650.53;5010211;28;19921;-66
2021/06/18 12:28:32;;;;;;;;;;;;;;;38.75;20.51;100630.75;4993030;28;20340;-67
2021/06/18 12:30:58;;;;;;;;;;;;;;;39.00;19.90;100634.13;4991823;28;19957;-67
2021/06/18 12:33:26;;;;;;;;;;;;;;;38.25;20.22;100636.31;4996036;28;19969;-65